Decoded Metar for KISM (KISSIMMEE/ORLAND in FL, USA) (IATA:ISM) | Meteo·Mobile Aviation Weather
aviador You're here:

KISM Decoded Metar

KISSIMMEE/ORLAND in FL, USA
Report Time2018-10-21 13:56:00
UTC Time2018-10-21 14:36:14
Flight Rules mvfr MVFR
Wind010° at 09 kt
W.Decomp.*RWY 33: 6.4 kt HW 6.4 kt RCW
RWY 06: 6.4 kt HW 6.4 kt LCW
W.Rank010° ranks 22
Current wind is above 010° avg. (6.1)
Visibility9999 m
Phenomena:N/A
Clouds:Broken 012 Hf
Expected CloudBase > 2,000 ft AGL from Temp-Dew spread
Ceiling1,200 ft
Temp24°C (ISA +9)
Dew Point19°C (74% RH)
QNH1019 hPa
Density Alt1,234 ft
Elevation82 ft
Report Wrong Elevation
Raw Report
METAR KISM 211356Z 01009KT 10SM BKN012 24/19 A3008=

Extra information for KISM:More info

Metar Taf Metar & Taf Last 4 Metars F.Rules Stats Wind Profile Meteogram Temp Stats Airport Information Weather charts Add Link Nearby VenuesMetar ALERT Operation Metar Decoded Social comments

AIRNAV info for KISM